KHLR/HLR METAR and TAF weather

Enter ICAO airport designator
Station Type Date Time Source
KHLR METAR 2019/04/25 09:58 UTC NOAA

KHLR 250958Z AUTO 27005KT 10SM CLR 13/13 A2979 RMK AO2 SLP083 T01300125


Station Type Date Time Source
KHLR Decoded METAR 2019/04/25 09:58 UTC NOAA

Fort Hood, Hood AAF Ft Hood, TX, United States (KHLR) 31-08N 097-42W
Apr 25, 2019 - 05:58 AM EDT / 2019.04.25 0958 UTC
Wind: from the W (270 degrees) at 6 MPH (5 KT):0
Visibility: 10 mile(s):0
Sky conditions: clear
Temperature: 55.4 F (13.0 C)
Dew Point: 54.5 F (12.5 C)
Relative Humidity: 96%
Pressure (altimeter): 29.79 in. Hg (1008 hPa)
ob: KHLR 250958Z AUTO 27005KT 10SM CLR 13/13 A2979 RMK AO2 SLP083 T01300125
cycle: 10

Station Type Date Time Source
KHLR TAF UTC NOAA

Error!

Example: see airport list